Time;durP1;ratioP1;P1;durP2;ratioP2;P2;SDS_P1;SDS_P2;PMS_P1;PMS_P2;Temp;Humidity;BMP_temperature;BMP_pressure;BME280_temperature;BME280_humidity;BME280_pressure;Samples;Min_cycle;Max_cycle;Signal;HPM_P1;HPM_P2
2022/09/18 00:01:13;;;;;;;;;;;;;;;12.63;66.87;101121.75;5085800;28;19924;-77
2022/09/18 00:03:39;;;;;;;;;;;;;;;12.64;67.05;101122.59;5087640;28;19939;-78
2022/09/18 00:06:12;;;;;;;;;;;;;;;12.78;68.17;101109.25;5083704;28;20431;-78
2022/09/18 00:08:37;;;;;;;;;;;;;;;12.71;67.24;101116.38;5083120;28;20483;-78
2022/09/18 00:11:05;;;;;;;;;;;;;;;12.84;66.93;101114.31;5080009;28;19974;-78
2022/09/18 00:13:30;;;;;;;;;;;;;;;12.49;67.71;101121.19;5082538;28;19967;-78
2022/09/18 00:15:56;;;;;;;;;;;;;;;12.72;67.66;101104.19;5082591;28;19967;-78
2022/09/18 00:18:21;;;;;;;;;;;;;;;12.66;67.06;101116.47;5082371;28;20501;-78
2022/09/18 00:20:46;;;;;;;;;;;;;;;12.59;67.79;101119.25;5081673;28;19928;-78
2022/09/18 00:23:11;;;;;;;;;;;;;;;12.57;67.87;101115.84;5083762;28;19924;-78
2022/09/18 00:25:36;;;;;;;;;;;;;;;12.64;67.82;101128.69;5081776;28;19982;-78
2022/09/18 00:28:02;;;;;;;;;;;;;;;12.70;67.61;101112.03;5081412;28;20328;-78
2022/09/18 00:30:27;;;;;;;;;;;;;;;12.75;68.57;101109.34;5082163;28;19928;-78
2022/09/18 00:32:52;;;;;;;;;;;;;;;12.87;67.93;101109.03;5082188;28;20409;-78
2022/09/18 00:35:18;;;;;;;;;;;;;;;12.34;70.29;101118.06;5082756;28;19973;-78
2022/09/18 00:37:44;;;;;;;;;;;;;;;12.69;67.78;101119.91;5084056;28;19928;-78
2022/09/18 00:40:09;;;;;;;;;;;;;;;12.69;68.73;101118.13;5082635;28;19926;-78
2022/09/18 00:42:35;;;;;;;;;;;;;;;12.50;69.52;101115.09;5082927;28;19973;-78
2022/09/18 00:45:00;;;;;;;;;;;;;;;12.50;69.08;101099.47;5082971;28;19989;-78
2022/09/18 00:47:31;;;;;;;;;;;;;;;12.58;68.54;101110.56;5084393;28;20448;-78
2022/09/18 00:49:56;;;;;;;;;;;;;;;12.69;68.78;101105.09;5079988;28;20405;-78
2022/09/18 00:52:25;;;;;;;;;;;;;;;12.60;69.00;101114.00;5080861;28;19954;-78
2022/09/18 00:55:01;;;;;;;;;;;;;;;12.58;68.98;101109.72;5082302;28;19928;-78
2022/09/18 00:57:29;;;;;;;;;;;;;;;12.71;69.49;101108.53;5062860;28;20031;-78
2022/09/18 00:59:54;;;;;;;;;;;;;;;12.72;68.38;101101.59;5080685;28;20445;-78
2022/09/18 01:02:20;;;;;;;;;;;;;;;12.59;68.37;101111.44;5081072;28;19981;-78
2022/09/18 01:04:45;;;;;;;;;;;;;;;12.76;68.66;101098.00;5082442;28;19934;-78
2022/09/18 01:07:30;;;;;;;;;;;;;;;12.69;68.08;101106.88;5066974;28;19924;-78
2022/09/18 01:10:01;;;;;;;;;;;;;;;12.63;67.83;101095.69;5085187;28;19920;-78
2022/09/18 01:12:29;;;;;;;;;;;;;;;12.56;68.15;101101.94;5086990;28;19924;-78
2022/09/18 01:15:04;;;;;;;;;;;;;;;12.74;67.74;101105.88;5086039;28;19932;-78
2022/09/18 01:17:40;;;;;;;;;;;;;;;12.48;68.59;101114.25;5086566;28;20265;-78
2022/09/18 01:20:12;;;;;;;;;;;;;;;12.48;68.13;101101.22;5082976;28;19939;-78
2022/09/18 01:22:37;;;;;;;;;;;;;;;12.69;67.71;101096.44;5084266;28;20411;-78
2022/09/18 01:25:21;;;;;;;;;;;;;;;12.63;67.44;101111.31;5088270;28;19959;-78
2022/09/18 01:28:04;;;;;;;;;;;;;;;12.69;67.50;101099.88;5089081;28;19990;-78
2022/09/18 01:30:30;;;;;;;;;;;;;;;12.79;67.36;101098.78;5084061;28;19966;-78
2022/09/18 01:32:58;;;;;;;;;;;;;;;12.82;67.38;101101.31;5085391;28;20007;-78
2022/09/18 01:35:38;;;;;;;;;;;;;;;12.74;67.58;101103.25;5085913;28;19927;-78
2022/09/18 01:38:06;;;;;;;;;;;;;;;12.59;67.55;101109.69;5068036;28;19935;-78
2022/09/18 01:40:35;;;;;;;;;;;;;;;12.68;67.66;101102.53;5085410;28;20530;-78
2022/09/18 01:43:02;;;;;;;;;;;;;;;12.46;67.33;101116.03;5065395;28;20351;-78
2022/09/18 01:45:31;;;;;;;;;;;;;;;12.50;67.75;101111.63;5084252;28;19931;-78
2022/09/18 01:47:58;;;;;;;;;;;;;;;12.63;67.29;101115.69;5085274;28;19958;-78
2022/09/18 01:50:29;;;;;;;;;;;;;;;12.51;67.76;101111.56;5084796;28;19935;-78
2022/09/18 01:53:01;;;;;;;;;;;;;;;12.26;69.10;101115.66;5084340;28;20420;-78
2022/09/18 01:55:29;;;;;;;;;;;;;;;12.59;67.64;101114.91;5085828;28;19920;-78
2022/09/18 01:57:54;;;;;;;;;;;;;;;12.56;68.24;101112.38;5085236;28;20478;-78
2022/09/18 02:00:20;;;;;;;;;;;;;;;12.60;68.39;101105.34;5081323;28;19936;-78
2022/09/18 02:02:50;;;;;;;;;;;;;;;12.71;68.42;101112.91;5083256;28;19974;-78
2022/09/18 02:05:25;;;;;;;;;;;;;;;12.72;67.54;101109.41;5084925;28;19974;-78
2022/09/18 02:08:01;;;;;;;;;;;;;;;12.50;68.54;101106.41;5063585;28;19924;-78
2022/09/18 02:10:28;;;;;;;;;;;;;;;12.61;68.07;101113.13;5085133;28;19927;-78
2022/09/18 02:12:55;;;;;;;;;;;;;;;12.64;68.12;101110.44;5086301;28;20393;-78
2022/09/18 02:15:21;;;;;;;;;;;;;;;12.69;67.15;101105.09;5084421;28;19959;-78
2022/09/18 02:17:47;;;;;;;;;;;;;;;12.61;68.11;101104.44;5083650;28;19924;-79
2022/09/18 02:20:19;;;;;;;;;;;;;;;12.39;69.14;101105.81;5083248;28;19943;-78
2022/09/18 02:22:46;;;;;;;;;;;;;;;12.54;68.24;101106.31;5082826;28;20003;-78
2022/09/18 02:25:14;;;;;;;;;;;;;;;12.62;68.41;101101.81;5061160;28;19920;-78
2022/09/18 02:27:40;;;;;;;;;;;;;;;12.77;67.83;101100.56;5085551;28;19946;-78
2022/09/18 02:30:07;;;;;;;;;;;;;;;12.66;68.93;101098.22;5083710;28;19935;-78
2022/09/18 02:32:34;;;;;;;;;;;;;;;12.66;68.61;101095.59;5083156;28;19920;-78
2022/09/18 02:34:59;;;;;;;;;;;;;;;12.65;69.48;101095.66;5085792;28;19939;-78
2022/09/18 02:37:34;;;;;;;;;;;;;;;12.56;68.63;101096.75;5084322;28;19924;-78
2022/09/18 02:40:08;;;;;;;;;;;;;;;12.66;69.00;101100.81;5085282;28;19970;-78
2022/09/18 02:42:39;;;;;;;;;;;;;;;12.56;68.60;101101.09;5083112;28;19912;-78
2022/09/18 02:45:04;;;;;;;;;;;;;;;12.54;69.51;101100.28;5082381;28;19928;-78
2022/09/18 02:47:48;;;;;;;;;;;;;;;12.48;69.37;101098.63;5082750;28;19946;-78
2022/09/18 02:50:24;;;;;;;;;;;;;;;12.48;68.85;101101.22;5082555;28;21085;-78
2022/09/18 02:52:58;;;;;;;;;;;;;;;12.68;69.04;101106.00;5086811;28;19931;-78
2022/09/18 02:55:26;;;;;;;;;;;;;;;12.60;69.05;101100.13;5086912;28;19924;-78
2022/09/18 02:57:59;;;;;;;;;;;;;;;12.73;69.67;101109.34;5087384;28;20013;-78
2022/09/18 03:00:26;;;;;;;;;;;;;;;12.64;69.55;101099.16;5083317;28;19927;-78
2022/09/18 03:02:51;;;;;;;;;;;;;;;12.72;68.72;101093.75;5082942;28;20359;-78
2022/09/18 03:05:17;;;;;;;;;;;;;;;12.54;69.28;101098.50;5064165;28;19920;-78
2022/09/18 03:07:42;;;;;;;;;;;;;;;12.60;69.27;101087.94;5083857;28;19924;-78
2022/09/18 03:10:08;;;;;;;;;;;;;;;12.59;70.33;101106.22;5084453;28;19966;-78
2022/09/18 03:12:33;;;;;;;;;;;;;;;12.68;69.69;101099.94;5085224;28;20013;-78
2022/09/18 03:14:58;;;;;;;;;;;;;;;12.58;70.75;101101.91;5083439;28;19932;-78
2022/09/18 03:17:24;;;;;;;;;;;;;;;12.75;70.07;101093.69;5082669;28;19920;-78
2022/09/18 03:19:49;;;;;;;;;;;;;;;12.47;69.79;101083.03;5082388;28;19928;-78
2022/09/18 03:22:14;;;;;;;;;;;;;;;12.47;70.88;101083.91;5084006;28;19923;-78
2022/09/18 03:24:40;;;;;;;;;;;;;;;12.64;70.32;101080.91;5083783;28;19967;-78
2022/09/18 03:27:05;;;;;;;;;;;;;;;12.54;70.45;101084.66;5084689;28;20485;-78
2022/09/18 03:29:31;;;;;;;;;;;;;;;12.63;69.65;101079.22;5062138;28;19974;-78
2022/09/18 03:31:56;;;;;;;;;;;;;;;12.65;70.05;101082.63;5083598;28;19924;-78
2022/09/18 03:34:22;;;;;;;;;;;;;;;12.75;69.45;101083.25;5083737;28;19924;-78
2022/09/18 03:36:47;;;;;;;;;;;;;;;12.54;70.96;101082.03;5084218;28;19970;-78
2022/09/18 03:39:12;;;;;;;;;;;;;;;12.37;70.18;101077.16;5083027;28;20328;-78
2022/09/18 03:41:38;;;;;;;;;;;;;;;12.46;71.42;101078.69;5083703;28;19951;-78
2022/09/18 03:44:03;;;;;;;;;;;;;;;12.59;71.20;101083.63;5083638;28;19934;-78
2022/09/18 03:46:28;;;;;;;;;;;;;;;12.65;71.58;101085.22;5083563;28;19985;-78
2022/09/18 03:48:54;;;;;;;;;;;;;;;12.65;70.41;101083.50;5083368;28;19924;-78
2022/09/18 03:51:19;;;;;;;;;;;;;;;12.58;69.54;101084.53;5081583;28;19932;-78
2022/09/18 03:53:45;;;;;;;;;;;;;;;12.71;69.21;101081.63;5080735;28;19928;-78
2022/09/18 03:56:12;;;;;;;;;;;;;;;12.73;70.26;101085.91;5083402;28;19934;-78
2022/09/18 03:58:37;;;;;;;;;;;;;;;12.61;70.12;101089.66;5082852;28;19928;-78
2022/09/18 04:01:02;;;;;;;;;;;;;;;12.63;70.07;101087.03;5081430;28;19927;-78
2022/09/18 04:03:28;;;;;;;;;;;;;;;12.69;69.36;101086.03;5083273;28;19928;-78
2022/09/18 04:05:53;;;;;;;;;;;;;;;12.72;69.69;101080.72;5078745;28;19924;-78
2022/09/18 04:08:18;;;;;;;;;;;;;;;12.66;70.44;101084.34;5083260;28;20007;-78
2022/09/18 04:10:45;;;;;;;;;;;;;;;12.56;69.64;101083.72;5060038;28;19927;-78
2022/09/18 04:13:11;;;;;;;;;;;;;;;12.42;70.43;101093.53;5083469;28;20053;-78
2022/09/18 04:15:36;;;;;;;;;;;;;;;12.72;69.31;101083.34;5083229;28;20018;-78
2022/09/18 04:18:01;;;;;;;;;;;;;;;12.69;69.13;101084.25;5086919;28;19924;-78
2022/09/18 04:20:27;;;;;;;;;;;;;;;12.39;69.56;101090.19;5081914;28;19935;-78
2022/09/18 04:22:52;;;;;;;;;;;;;;;12.48;69.98;101103.00;5085647;28;20419;-78
2022/09/18 04:25:18;;;;;;;;;;;;;;;12.60;70.01;101102.75;5083278;28;19935;-78
2022/09/18 04:27:44;;;;;;;;;;;;;;;12.44;70.23;101094.38;5082821;28;20579;-78
2022/09/18 04:30:10;;;;;;;;;;;;;;;12.65;71.43;101098.25;5081452;28;19928;-78
2022/09/18 04:32:35;;;;;;;;;;;;;;;12.69;70.68;101093.84;5060972;28;20392;-78
2022/09/18 04:35:00;;;;;;;;;;;;;;;12.70;70.20;101091.19;5081818;28;19932;-78
2022/09/18 04:37:26;;;;;;;;;;;;;;;12.62;69.65;101078.34;5081013;28;19939;-78
2022/09/18 04:39:51;;;;;;;;;;;;;;;12.59;70.88;101101.00;5062122;28;19928;-78
2022/09/18 04:42:16;;;;;;;;;;;;;;;12.47;70.66;101090.84;5086808;28;19924;-78
2022/09/18 04:44:41;;;;;;;;;;;;;;;12.72;70.14;101093.75;5087825;28;19928;-78
2022/09/18 04:47:07;;;;;;;;;;;;;;;12.77;69.62;101094.50;5086921;28;20030;-78
2022/09/18 04:49:32;;;;;;;;;;;;;;;12.66;69.58;101092.16;5088316;28;20042;-78
2022/09/18 04:51:57;;;;;;;;;;;;;;;12.54;70.68;101088.06;5088805;28;19923;-78
2022/09/18 04:54:22;;;;;;;;;;;;;;;12.65;70.46;101093.91;5089215;28;20009;-78
2022/09/18 04:56:48;;;;;;;;;;;;;;;12.66;70.84;101095.59;5068762;28;19931;-78
2022/09/18 04:59:13;;;;;;;;;;;;;;;12.72;70.02;101093.75;5087039;28;20503;-78
2022/09/18 05:01:39;;;;;;;;;;;;;;;12.69;70.09;101086.84;5069514;28;19920;-78
2022/09/18 05:04:05;;;;;;;;;;;;;;;12.45;70.35;101080.44;5069490;28;19920;-78
2022/09/18 05:06:30;;;;;;;;;;;;;;;12.69;70.41;101083.41;5089113;28;19973;-78
2022/09/18 05:08:56;;;;;;;;;;;;;;;12.45;71.14;101085.66;5087413;28;20404;-78
2022/09/18 05:11:21;;;;;;;;;;;;;;;12.58;70.64;101083.66;5086329;28;19981;-78
2022/09/18 05:13:47;;;;;;;;;;;;;;;12.46;71.08;101089.97;5086287;28;19932;-79
2022/09/18 05:16:12;;;;;;;;;;;;;;;12.53;73.32;101086.38;5086895;28;19916;-78
2022/09/18 05:18:38;;;;;;;;;;;;;;;12.50;74.63;101078.59;5089071;28;19967;-78
2022/09/18 05:21:06;;;;;;;;;;;;;;;12.57;74.51;101082.78;5088356;28;20304;-78
2022/09/18 05:23:33;;;;;;;;;;;;;;;12.55;75.54;101084.59;5087961;28;19954;-78
2022/09/18 05:25:59;;;;;;;;;;;;;;;12.24;75.14;101080.13;5086307;28;19974;-78
2022/09/18 05:28:24;;;;;;;;;;;;;;;12.58;74.02;101081.91;5088271;28;20369;-78
2022/09/18 05:30:49;;;;;;;;;;;;;;;12.61;74.37;101083.59;5082334;28;19931;-78
2022/09/18 05:33:14;;;;;;;;;;;;;;;12.58;74.10;101081.91;5087477;28;19928;-78
2022/09/18 05:35:41;;;;;;;;;;;;;;;12.45;73.92;101072.63;5087795;28;20369;-78
2022/09/18 05:38:06;;;;;;;;;;;;;;;12.50;73.62;101073.41;5086992;28;19920;-78
2022/09/18 05:40:33;;;;;;;;;;;;;;;12.36;72.86;101078.09;5085977;28;19928;-78
2022/09/18 05:42:59;;;;;;;;;;;;;;;12.32;74.09;101081.66;5086946;28;19985;-78
2022/09/18 05:45:24;;;;;;;;;;;;;;;12.49;73.78;101076.88;5092597;28;20360;-77
2022/09/18 05:48:09;;;;;;;;;;;;;;;12.53;73.60;101083.78;5091541;28;20328;-77
2022/09/18 05:50:37;;;;;;;;;;;;;;;12.61;72.75;101087.06;5087251;28;19981;-77
2022/09/18 05:53:02;;;;;;;;;;;;;;;12.52;73.04;101087.28;5085847;28;20050;-77
2022/09/18 05:55:28;;;;;;;;;;;;;;;12.55;72.59;101083.72;5088355;28;20034;-77
2022/09/18 05:57:54;;;;;;;;;;;;;;;12.48;72.05;101090.78;5088795;28;19925;-77
2022/09/18 06:00:19;;;;;;;;;;;;;;;12.60;72.41;101082.72;5087717;28;20385;-77
2022/09/18 06:03:11;;;;;;;;;;;;;;;12.57;73.29;101080.19;5087105;28;19923;-77
2022/09/18 06:05:37;;;;;;;;;;;;;;;12.56;72.78;101083.72;5084213;28;19916;-77
2022/09/18 06:08:06;;;;;;;;;;;;;;;12.61;72.60;101087.06;5085852;28;19973;-77
2022/09/18 06:10:32;;;;;;;;;;;;;;;12.66;73.52;101079.13;5086267;28;20273;-77
2022/09/18 06:13:01;;;;;;;;;;;;;;;12.34;72.86;101087.66;5063321;28;19969;-77
2022/09/18 06:15:26;;;;;;;;;;;;;;;12.72;72.22;101084.16;5087518;28;19920;-77
2022/09/18 06:17:52;;;;;;;;;;;;;;;12.55;72.25;101087.19;5067363;28;19924;-77
2022/09/18 06:20:17;;;;;;;;;;;;;;;12.52;71.94;101083.78;5085925;28;19931;-77
2022/09/18 06:22:42;;;;;;;;;;;;;;;12.63;71.25;101092.25;5085744;28;19920;-77
2022/09/18 06:25:08;;;;;;;;;;;;;;;12.57;71.16;101085.41;5070117;28;19924;-77
2022/09/18 06:27:33;;;;;;;;;;;;;;;12.64;71.58;101089.59;5085469;28;19920;-77
2022/09/18 06:29:58;;;;;;;;;;;;;;;12.51;71.02;101079.47;5082933;28;20054;-77
2022/09/18 06:32:24;;;;;;;;;;;;;;;12.62;72.19;101085.31;5084745;28;19920;-76
2022/09/18 06:34:49;;;;;;;;;;;;;;;12.66;72.01;101095.59;5085875;28;19939;-76
2022/09/18 06:37:15;;;;;;;;;;;;;;;12.78;70.85;101086.63;5085377;28;19977;-76
2022/09/18 06:39:40;;;;;;;;;;;;;;;12.66;71.21;101085.19;5083744;28;19928;-76
2022/09/18 06:42:06;;;;;;;;;;;;;;;12.68;71.15;101092.13;5084012;28;20036;-78
2022/09/18 06:44:31;;;;;;;;;;;;;;;12.60;69.99;101094.94;5085286;28;19928;-78
2022/09/18 06:46:57;;;;;;;;;;;;;;;12.33;71.33;101096.41;5085466;28;19920;-77
2022/09/18 06:49:22;;;;;;;;;;;;;;;12.56;69.42;101091.53;5084341;28;20050;-77
2022/09/18 06:51:47;;;;;;;;;;;;;;;12.69;70.28;101099.88;5062167;28;19942;-78
2022/09/18 06:54:13;;;;;;;;;;;;;;;12.51;69.95;101093.34;5085467;28;20019;-77
2022/09/18 06:56:39;;;;;;;;;;;;;;;12.54;72.97;101101.09;5084386;28;19932;-77
2022/09/18 06:59:04;;;;;;;;;;;;;;;12.38;73.30;101099.75;5085868;28;19927;-77
2022/09/18 07:01:29;;;;;;;;;;;;;;;12.63;72.74;101092.25;5082651;28;19924;-77
2022/09/18 07:03:55;;;;;;;;;;;;;;;12.53;73.85;101093.34;5085641;28;20332;-77
2022/09/18 07:06:20;;;;;;;;;;;;;;;12.72;72.02;101096.38;5065674;28;19924;-77
2022/09/18 07:08:45;;;;;;;;;;;;;;;12.66;71.93;101093.00;5084976;28;19920;-77
2022/09/18 07:11:11;;;;;;;;;;;;;;;12.66;71.49;101092.16;5087257;28;19928;-77
2022/09/18 07:13:36;;;;;;;;;;;;;;;12.71;70.11;101095.50;5091548;28;20423;-77
2022/09/18 07:16:02;;;;;;;;;;;;;;;12.81;69.86;101096.16;5088962;28;19924;-77
2022/09/18 07:18:27;;;;;;;;;;;;;;;12.84;71.20;101098.69;5082645;28;19920;-77
2022/09/18 07:20:53;;;;;;;;;;;;;;;12.81;71.56;101091.75;5081283;28;19990;-77
2022/09/18 07:23:18;;;;;;;;;;;;;;;12.82;72.90;101096.09;5061099;28;19950;-77
2022/09/18 07:25:44;;;;;;;;;;;;;;;12.74;74.62;101084.16;5085123;28;19959;-77
2022/09/18 07:28:09;;;;;;;;;;;;;;;12.86;72.20;101094.28;5085000;28;20217;-77
2022/09/18 07:30:35;;;;;;;;;;;;;;;12.78;73.36;101098.84;5083199;28;20015;-77
2022/09/18 07:33:01;;;;;;;;;;;;;;;12.68;72.63;101092.13;5084566;28;20030;-77
2022/09/18 07:35:28;;;;;;;;;;;;;;;12.63;71.98;101092.25;5084450;28;19928;-77
2022/09/18 07:38:00;;;;;;;;;;;;;;;12.71;73.78;101092.91;5061943;28;19928;-77
2022/09/18 07:40:26;;;;;;;;;;;;;;;12.74;74.74;101092.81;5061167;28;20391;-77
2022/09/18 07:42:51;;;;;;;;;;;;;;;12.72;72.98;101099.81;5084793;28;19920;-76
2022/09/18 07:45:16;;;;;;;;;;;;;;;12.72;72.13;101099.81;5084097;28;20560;-77
2022/09/18 07:47:42;;;;;;;;;;;;;;;12.71;71.68;101090.28;5085106;28;19931;-77
2022/09/18 07:50:12;;;;;;;;;;;;;;;12.66;70.29;101094.78;5062281;28;19928;-77
2022/09/18 07:52:37;;;;;;;;;;;;;;;12.68;70.06;101087.75;5085089;28;19930;-77
2022/09/18 07:55:03;;;;;;;;;;;;;;;12.65;71.91;101098.25;5086748;28;20524;-77
2022/09/18 07:57:28;;;;;;;;;;;;;;;12.54;72.93;101095.06;5086703;28;19924;-77
2022/09/18 07:59:54;;;;;;;;;;;;;;;12.81;72.70;101101.38;5060942;28;19995;-77
2022/09/18 08:02:19;;;;;;;;;;;;;;;12.69;72.14;101091.22;5081077;28;19920;-76
2022/09/18 08:04:44;;;;;;;;;;;;;;;12.62;70.87;101088.78;5082559;28;19997;-76
2022/09/18 08:07:09;;;;;;;;;;;;;;;12.69;70.96;101084.25;5085979;28;20426;-76
2022/09/18 08:09:35;;;;;;;;;;;;;;;12.91;70.64;101080.22;5085907;28;20042;-77
2022/09/18 08:12:01;;;;;;;;;;;;;;;12.81;70.88;101083.13;5086224;28;19992;-77
2022/09/18 08:14:26;;;;;;;;;;;;;;;12.97;70.13;101079.19;5084914;28;19932;-77
2022/09/18 08:16:52;;;;;;;;;;;;;;;12.82;69.32;101079.59;5088987;28;19920;-76
2022/09/18 08:19:17;;;;;;;;;;;;;;;12.85;69.49;101084.72;5088556;28;19928;-76
2022/09/18 08:21:42;;;;;;;;;;;;;;;12.75;69.53;101080.66;5088948;28;20011;-77
2022/09/18 08:24:08;;;;;;;;;;;;;;;13.00;69.77;101084.34;5087032;28;20019;-77
2022/09/18 08:26:37;;;;;;;;;;;;;;;12.77;69.25;101089.28;5087265;28;20282;-77
2022/09/18 08:29:02;;;;;;;;;;;;;;;13.01;68.78;101083.44;5088876;28;19924;-77
2022/09/18 08:31:27;;;;;;;;;;;;;;;12.68;70.07;101090.38;5062983;28;19930;-77
2022/09/18 08:33:54;;;;;;;;;;;;;;;12.96;69.22;101077.47;5088489;28;19935;-77
2022/09/18 08:36:19;;;;;;;;;;;;;;;13.03;69.05;101092.09;5088947;28;19924;-77
2022/09/18 08:38:44;;;;;;;;;;;;;;;12.91;69.85;101089.78;5090710;28;19924;-77
2022/09/18 08:41:36;;;;;;;;;;;;;;;12.90;68.90;101103.75;5093153;28;19916;-77
2022/09/18 08:44:01;;;;;;;;;;;;;;;12.58;68.93;101089.72;5063866;28;19940;-77
2022/09/18 08:46:33;;;;;;;;;;;;;;;12.93;68.99;101087.97;5086720;28;19924;-77
2022/09/18 08:49:04;;;;;;;;;;;;;;;12.77;67.90;101087.53;5086728;28;19977;-77
2022/09/18 08:51:52;;;;;;;;;;;;;;;12.71;69.41;101098.13;5090109;28;19920;-77
2022/09/18 08:54:17;;;;;;;;;;;;;;;13.02;68.86;101092.97;5087295;28;19932;-77
2022/09/18 08:56:43;;;;;;;;;;;;;;;12.99;68.23;101091.31;5088491;28;19928;-77
2022/09/18 08:59:15;;;;;;;;;;;;;;;12.77;68.80;101100.56;5087809;28;19979;-77
2022/09/18 09:02:02;;;;;;;;;;;;;;;13.04;68.58;101085.97;5086651;28;19985;-77
2022/09/18 09:04:27;;;;;;;;;;;;;;;12.87;67.59;101070.75;5088364;28;19970;-77
2022/09/18 09:07:02;;;;;;;;;;;;;;;13.04;68.20;101076.41;5068221;28;20323;-77
2022/09/18 09:09:45;;;;;;;;;;;;;;;13.06;67.99;101084.19;5087819;28;19937;-77
2022/09/18 09:12:17;;;;;;;;;;;;;;;13.01;67.94;101080.84;5087389;28;19970;-77
2022/09/18 09:15:01;;;;;;;;;;;;;;;13.19;68.40;101083.81;5088752;28;19928;-77
2022/09/18 09:17:26;;;;;;;;;;;;;;;13.13;66.72;101080.53;5084168;28;19923;-77
2022/09/18 09:19:54;;;;;;;;;;;;;;;13.13;66.77;101080.53;5087634;28;20386;-77
2022/09/18 09:22:29;;;;;;;;;;;;;;;13.31;68.28;101081.78;5066886;28;19960;-77
2022/09/18 09:25:03;;;;;;;;;;;;;;;13.24;67.38;101088.91;5089400;28;20381;-77
2022/09/18 09:27:31;;;;;;;;;;;;;;;13.02;68.65;101093.81;5087039;28;19920;-77
2022/09/18 09:30:00;;;;;;;;;;;;;;;13.18;68.59;101089.94;5087784;28;19956;-77
2022/09/18 09:32:44;;;;;;;;;;;;;;;13.28;66.97;101080.13;5087141;28;19928;-77
2022/09/18 09:35:15;;;;;;;;;;;;;;;13.26;67.72;101076.66;5086910;28;19931;-77
2022/09/18 09:37:42;;;;;;;;;;;;;;;13.33;67.86;101085.19;5089596;28;19950;-77
2022/09/18 09:40:17;;;;;;;;;;;;;;;13.19;70.30;101093.41;5089591;28;20003;-77
2022/09/18 09:43:11;;;;;;;;;;;;;;;13.07;71.40;101094.59;5082867;28;19920;-77
2022/09/18 09:45:41;;;;;;;;;;;;;;;12.95;71.62;101099.25;5066876;28;19931;-77
2022/09/18 09:48:09;;;;;;;;;;;;;;;13.02;71.71;101092.97;5087004;28;20006;-77
2022/09/18 09:50:48;;;;;;;;;;;;;;;12.78;69.83;101089.22;5068042;28;19928;-77
2022/09/18 09:53:13;;;;;;;;;;;;;;;12.99;70.93;101082.63;5086447;28;19991;-77
2022/09/18 09:55:46;;;;;;;;;;;;;;;13.05;71.51;101087.66;5087199;28;20046;-77
2022/09/18 09:58:14;;;;;;;;;;;;;;;13.03;69.57;101077.28;5065253;28;20355;-77
2022/09/18 10:00:51;;;;;;;;;;;;;;;13.09;69.99;101071.91;5087346;28;19916;-77
2022/09/18 10:03:48;;;;;;;;;;;;;;;13.11;72.07;101071.88;5087679;28;19920;-77
2022/09/18 10:06:31;;;;;;;;;;;;;;;13.10;68.96;101070.19;5071904;28;19916;-77
2022/09/18 10:09:12;;;;;;;;;;;;;;;13.08;70.10;101064.97;5089206;28;20994;-77
2022/09/18 10:11:39;;;;;;;;;;;;;;;12.96;67.54;101069.66;5066900;28;19932;-78
2022/09/18 10:14:09;;;;;;;;;;;;;;;13.18;67.56;101070.81;5070082;28;20427;-78
2022/09/18 10:16:41;;;;;;;;;;;;;;;13.14;68.09;101069.19;5087049;28;19920;-78
2022/09/18 10:19:10;;;;;;;;;;;;;;;13.22;65.99;101062.03;5088620;28;19920;-78
2022/09/18 10:21:36;;;;;;;;;;;;;;;13.06;66.06;101058.97;5087387;28;20381;-78
2022/09/18 10:24:04;;;;;;;;;;;;;;;13.15;65.42;101068.28;5085032;28;19920;-78
2022/09/18 10:26:36;;;;;;;;;;;;;;;13.22;65.60;101070.69;5085323;28;20542;-78
2022/09/18 10:29:02;;;;;;;;;;;;;;;13.26;66.55;101062.78;5086347;28;19924;-78
2022/09/18 10:31:47;;;;;;;;;;;;;;;13.10;65.15;101054.53;5063205;28;20282;-78
2022/09/18 10:34:31;;;;;;;;;;;;;;;13.29;65.58;101042.69;5087428;28;19985;-78
2022/09/18 10:36:56;;;;;;;;;;;;;;;13.32;65.38;101054.78;5087577;28;19924;-78
2022/09/18 10:39:28;;;;;;;;;;;;;;;13.20;65.39;101067.25;5067152;28;20023;-78
2022/09/18 10:42:01;;;;;;;;;;;;;;;12.97;64.99;101079.19;5087925;28;19924;-78
2022/09/18 10:44:30;;;;;;;;;;;;;;;13.16;65.73;101077.84;5085296;28;19923;-78
2022/09/18 10:47:09;;;;;;;;;;;;;;;13.01;66.85;101089.53;5085674;28;19974;-78
2022/09/18 10:49:39;;;;;;;;;;;;;;;12.73;67.82;101091.09;5086834;28;19916;-78
2022/09/18 10:52:18;;;;;;;;;;;;;;;12.73;69.63;101092.84;5087603;28;19920;-78
2022/09/18 10:55:11;;;;;;;;;;;;;;;12.96;69.87;101088.78;5088290;28;19935;-78
2022/09/18 10:57:39;;;;;;;;;;;;;;;13.02;68.85;101080.78;5058051;28;19928;-78
2022/09/18 11:00:25;;;;;;;;;;;;;;;12.86;68.39;101070.81;5086158;28;19920;-78
2022/09/18 11:03:09;;;;;;;;;;;;;;;12.88;67.49;101077.69;5084936;28;19924;-78
2022/09/18 11:05:36;;;;;;;;;;;;;;;12.94;67.74;101076.66;5087178;28;19940;-78
2022/09/18 11:08:06;;;;;;;;;;;;;;;12.77;67.48;101063.22;5085590;28;19928;-78
2022/09/18 11:10:32;;;;;;;;;;;;;;;12.94;67.80;101064.50;5086156;28;19920;-78
2022/09/18 11:12:59;;;;;;;;;;;;;;;12.96;66.03;101057.47;5086241;28;19959;-78
2022/09/18 11:15:27;;;;;;;;;;;;;;;13.03;67.36;101045.13;5085265;28;20557;-78
2022/09/18 11:17:55;;;;;;;;;;;;;;;12.97;65.69;101053.13;5085580;28;20450;-78
2022/09/18 11:20:23;;;;;;;;;;;;;;;13.08;66.00;101049.34;5085883;28;19927;-78
2022/09/18 11:22:49;;;;;;;;;;;;;;;13.05;65.81;101051.16;5063337;28;19920;-78
2022/09/18 11:25:19;;;;;;;;;;;;;;;13.23;66.82;101064.56;5086509;28;20511;-78
2022/09/18 11:27:44;;;;;;;;;;;;;;;13.18;66.78;101063.84;5084939;28;20005;-78
2022/09/18 11:30:21;;;;;;;;;;;;;;;13.03;66.94;101066.00;5086483;28;20381;-78
2022/09/18 11:32:48;;;;;;;;;;;;;;;13.11;67.79;101064.91;5086414;28;19985;-78
2022/09/18 11:35:15;;;;;;;;;;;;;;;13.06;68.89;101063.31;5090072;28;19920;-78
2022/09/18 11:37:47;;;;;;;;;;;;;;;13.03;68.12;101068.59;5089243;28;19916;-77
2022/09/18 11:40:21;;;;;;;;;;;;;;;12.85;68.97;101062.13;5089682;28;19916;-77
2022/09/18 11:42:47;;;;;;;;;;;;;;;12.97;69.60;101055.72;5087822;28;19939;-77
2022/09/18 11:45:32;;;;;;;;;;;;;;;13.08;69.24;101056.28;5085277;28;19935;-77
2022/09/18 11:48:14;;;;;;;;;;;;;;;13.07;70.30;101047.66;5085479;28;19965;-77
2022/09/18 11:50:39;;;;;;;;;;;;;;;13.17;69.61;101050.84;5085000;28;19927;-77
2022/09/18 11:53:14;;;;;;;;;;;;;;;13.10;70.11;101058.00;5066095;28;19920;-77
2022/09/18 11:56:03;;;;;;;;;;;;;;;13.01;71.95;101060.84;5084791;28;19939;-77
2022/09/18 11:58:37;;;;;;;;;;;;;;;13.11;68.88;101053.59;5047706;28;19920;-77
2022/09/18 12:01:05;;;;;;;;;;;;;;;12.95;72.02;101054.94;5083198;28;20006;-77
2022/09/18 12:03:33;;;;;;;;;;;;;;;12.88;70.54;101042.94;5084945;28;19935;-77
2022/09/18 12:06:22;;;;;;;;;;;;;;;12.95;72.75;101045.34;5085649;28;21056;-77
2022/09/18 12:08:47;;;;;;;;;;;;;;;12.93;71.67;101054.94;5074354;28;20377;-77
2022/09/18 12:11:12;;;;;;;;;;;;;;;12.98;72.01;101039.19;5086260;28;19927;-77
2022/09/18 12:13:56;;;;;;;;;;;;;;;12.73;72.19;101046.78;5085741;28;20392;-77
2022/09/18 12:16:40;;;;;;;;;;;;;;;12.70;73.03;101046.88;5084914;28;19920;-77
2022/09/18 12:19:28;;;;;;;;;;;;;;;12.77;73.11;101048.44;5085480;28;19924;-77
2022/09/18 12:21:57;;;;;;;;;;;;;;;12.60;72.33;101048.84;5071720;28;19931;-77
2022/09/18 12:24:22;;;;;;;;;;;;;;;12.92;71.79;101034.16;5066958;28;20357;-77
2022/09/18 12:26:55;;;;;;;;;;;;;;;12.81;72.44;101036.19;5085458;28;19956;-77
2022/09/18 12:29:32;;;;;;;;;;;;;;;13.04;71.02;101041.66;5084786;28;19935;-77
2022/09/18 12:32:03;;;;;;;;;;;;;;;12.90;71.92;101035.94;5083352;28;19974;-77
2022/09/18 12:34:28;;;;;;;;;;;;;;;13.02;69.74;101023.41;5064951;28;19935;-77
2022/09/18 12:37:03;;;;;;;;;;;;;;;13.08;71.69;101033.69;5086133;28;19920;-77
2022/09/18 12:39:31;;;;;;;;;;;;;;;13.21;70.75;101026.38;5085565;28;20380;-77
2022/09/18 12:41:57;;;;;;;;;;;;;;;13.30;70.02;101026.13;5085167;28;19931;-77
2022/09/18 12:44:22;;;;;;;;;;;;;;;13.20;69.99;101014.22;5083448;28;19928;-77